createdAt,value
2018-08-17T00:01:58.335Z,12.87
2018-08-17T00:04:28.799Z,11.63
2018-08-17T00:06:59.163Z,13.43
2018-08-17T00:09:29.537Z,12.93
2018-08-17T00:11:59.987Z,15.13
2018-08-17T00:14:30.329Z,12.17
2018-08-17T00:17:00.713Z,14.83
2018-08-17T00:19:31.096Z,12.90
2018-08-17T00:22:01.529Z,13.03
2018-08-17T00:24:31.892Z,13.93
2018-08-17T00:27:02.351Z,11.53
2018-08-17T00:29:33.429Z,12.00
2018-08-17T00:32:03.827Z,13.30
2018-08-17T00:34:34.171Z,12.73
2018-08-17T00:37:04.600Z,12.73
2018-08-17T00:39:34.862Z,11.73
2018-08-17T00:42:05.203Z,14.87
2018-08-17T00:44:35.628Z,12.20
2018-08-17T00:47:05.928Z,15.33
2018-08-17T00:49:36.245Z,13.07
2018-08-17T00:52:06.521Z,11.63
2018-08-17T00:54:36.879Z,13.23
2018-08-17T00:57:08.083Z,12.80
2018-08-17T00:59:38.352Z,12.03
2018-08-17T01:02:08.696Z,16.87
2018-08-17T01:04:38.992Z,13.73
2018-08-17T01:07:09.264Z,13.20
2018-08-17T01:09:39.631Z,11.97
2018-08-17T01:12:09.946Z,12.00
2018-08-17T01:14:40.252Z,13.07
2018-08-17T01:17:11.715Z,13.90
2018-08-17T01:19:41.977Z,12.23
2018-08-17T01:22:12.261Z,13.70
2018-08-17T01:24:42.538Z,13.57
2018-08-17T01:27:12.852Z,12.90
2018-08-17T01:29:43.429Z,10.77
2018-08-17T01:32:13.731Z,11.70
2018-08-17T01:34:44.424Z,13.20
2018-08-17T01:37:14.676Z,14.63
2018-08-17T01:39:44.987Z,13.37
2018-08-17T01:42:15.261Z,11.53
2018-08-17T01:44:45.615Z,12.40
2018-08-17T01:47:15.895Z,12.47
2018-08-17T01:49:46.260Z,14.03
2018-08-17T01:52:16.547Z,10.50
2018-08-17T01:54:46.899Z,11.43
2018-08-17T01:57:17.235Z,11.90
2018-08-17T01:59:47.549Z,13.90
2018-08-17T02:02:17.860Z,12.40
2018-08-17T02:04:48.144Z,13.33
2018-08-17T02:07:18.424Z,14.07
2018-08-17T02:09:48.701Z,12.70
2018-08-17T02:12:18.984Z,11.10
2018-08-17T02:14:49.342Z,11.10
2018-08-17T02:17:19.629Z,12.43
2018-08-17T02:19:49.939Z,11.90
2018-08-17T02:22:20.251Z,11.67
2018-08-17T02:24:50.539Z,12.03
2018-08-17T02:27:21.627Z,11.40
2018-08-17T02:29:52.519Z,12.03
2018-08-17T02:32:22.765Z,14.83
2018-08-17T02:34:53.164Z,10.73
2018-08-17T02:37:23.463Z,10.57
2018-08-17T02:39:54.424Z,13.93
2018-08-17T02:42:24.709Z,10.43
2018-08-17T02:44:55.001Z,10.83
2018-08-17T02:47:25.245Z,12.77
2018-08-17T02:49:56.522Z,11.57
2018-08-17T02:52:26.815Z,11.97
2018-08-17T02:54:57.152Z,11.60
2018-08-17T02:57:27.424Z,11.00
2018-08-17T02:59:57.718Z,12.00
2018-08-17T03:02:27.966Z,12.77
2018-08-17T03:04:58.256Z,12.13
2018-08-17T03:07:28.584Z,12.50
2018-08-17T03:09:58.908Z,12.07
2018-08-17T03:12:29.200Z,11.90
2018-08-17T03:14:59.579Z,11.10
2018-08-17T03:17:31.152Z,11.07
2018-08-17T03:20:01.518Z,12.77
2018-08-17T03:22:32.021Z,11.20
2018-08-17T03:25:02.395Z,11.57
2018-08-17T03:27:32.777Z,11.93
2018-08-17T03:30:03.405Z,11.00
2018-08-17T03:32:33.645Z,10.60
2018-08-17T03:35:04.023Z,10.30
2018-08-17T03:37:34.408Z,12.23
2018-08-17T03:40:04.739Z,12.27
2018-08-17T03:42:35.003Z,13.23
2018-08-17T03:45:05.421Z,13.00
2018-08-17T03:47:35.727Z,12.20
2018-08-17T03:50:06.456Z,12.73
2018-08-17T03:52:36.764Z,10.60
2018-08-17T03:55:07.230Z,11.97
2018-08-17T03:57:37.536Z,11.07
2018-08-17T04:00:08.053Z,11.83
2018-08-17T04:02:38.304Z,11.33
2018-08-17T04:05:08.627Z,10.67
2018-08-17T04:07:38.871Z,10.97
2018-08-17T04:10:09.345Z,11.13
2018-08-17T04:12:39.623Z,10.07
2018-08-17T04:15:10.651Z,11.53
2018-08-17T04:17:40.952Z,12.03
2018-08-17T04:20:11.305Z,10.80
2018-08-17T04:24:05.660Z,13.20
2018-08-17T04:26:35.959Z,13.93
2018-08-17T04:29:06.274Z,11.87
2018-08-17T04:31:36.867Z,12.00
2018-08-17T04:34:07.196Z,14.40
2018-08-17T04:36:37.532Z,12.77
2018-08-17T04:39:08.406Z,12.37
2018-08-17T04:41:38.763Z,12.23
2018-08-17T04:44:09.394Z,12.00
2018-08-17T04:46:39.715Z,11.50
2018-08-17T04:49:10.004Z,12.37
2018-08-17T04:51:40.308Z,10.47
2018-08-17T04:54:10.581Z,12.97
2018-08-17T04:56:40.865Z,11.77
2018-08-17T04:59:11.187Z,10.53
2018-08-17T05:01:41.456Z,11.27
2018-08-17T05:04:11.695Z,12.20
2018-08-17T05:06:42.148Z,10.70
2018-08-17T05:09:12.404Z,11.27
2018-08-17T05:11:42.747Z,10.70
2018-08-17T05:14:13.112Z,11.90
2018-08-17T05:16:43.403Z,11.13
2018-08-17T05:19:13.683Z,15.33
2018-08-17T05:21:43.969Z,12.33
2018-08-17T05:24:15.009Z,11.97
2018-08-17T05:26:45.397Z,12.57
2018-08-17T05:29:16.615Z,13.00
2018-08-17T05:31:47.298Z,12.20
2018-08-17T05:34:18.187Z,11.27
2018-08-17T05:36:48.522Z,11.43
2018-08-17T05:39:18.871Z,12.17
2018-08-17T05:41:50.132Z,12.53
2018-08-17T05:44:20.389Z,10.63
2018-08-17T05:46:50.715Z,11.33
2018-08-17T05:49:21.009Z,11.30
2018-08-17T05:51:51.335Z,13.97
2018-08-17T05:54:21.593Z,12.07
2018-08-17T05:56:51.897Z,11.30
2018-08-17T05:59:22.250Z,13.23
2018-08-17T06:01:52.660Z,10.17
2018-08-17T06:04:22.928Z,11.37
2018-08-17T06:06:53.305Z,11.50
2018-08-17T06:09:23.561Z,12.40
2018-08-17T06:11:53.953Z,10.43
2018-08-17T06:14:24.264Z,11.10
2018-08-17T06:16:54.885Z,11.33
2018-08-17T06:19:25.168Z,11.87
2018-08-17T06:21:55.504Z,10.77
2018-08-17T06:24:25.784Z,12.77
2018-08-17T06:26:56.084Z,13.43
2018-08-17T06:29:26.367Z,12.87
2018-08-17T06:31:56.996Z,12.80
2018-08-17T06:34:27.283Z,12.20
2018-08-17T06:36:57.567Z,10.20
2018-08-17T06:39:28.112Z,13.27
2018-08-17T06:41:58.403Z,11.87
2018-08-17T06:44:28.820Z,10.47
2018-08-17T06:46:59.085Z,11.17
2018-08-17T06:49:29.341Z,10.97
2018-08-17T06:51:59.611Z,11.03
2018-08-17T06:54:29.907Z,13.33
2018-08-17T06:57:00.254Z,10.70
2018-08-17T06:59:30.573Z,11.20
2018-08-17T07:02:00.848Z,12.00
2018-08-17T07:04:31.076Z,10.67
2018-08-17T07:07:01.381Z,11.27
2018-08-17T07:09:31.751Z,10.80
2018-08-17T07:12:02.126Z,13.10
2018-08-17T07:14:32.412Z,11.57
2018-08-17T07:17:02.734Z,11.57
2018-08-17T07:19:32.988Z,10.53
2018-08-17T07:22:03.317Z,11.60
2018-08-17T07:24:33.691Z,10.00
2018-08-17T07:27:03.988Z,10.93
2018-08-17T07:29:34.352Z,10.83
2018-08-17T07:32:05.096Z,12.87
2018-08-17T07:34:35.465Z,11.73
2018-08-17T07:37:05.799Z,13.13
2018-08-17T07:39:36.059Z,10.87
2018-08-17T07:42:06.398Z,10.83
2018-08-17T07:44:36.677Z,10.00
2018-08-17T07:47:06.981Z,11.03
2018-08-17T07:49:37.255Z,11.23
2018-08-17T07:52:07.567Z,13.17
2018-08-17T07:54:37.851Z,13.27
2018-08-17T07:57:08.143Z,11.70
2018-08-17T07:59:38.405Z,10.90
2018-08-17T08:02:08.751Z,10.87
2018-08-17T08:04:39.026Z,10.87
2018-08-17T08:07:09.462Z,10.97
2018-08-17T08:09:40.352Z,11.57
2018-08-17T08:12:10.671Z,12.03
2018-08-17T08:14:40.959Z,10.93
2018-08-17T08:17:11.272Z,12.03
2018-08-17T08:19:41.705Z,10.53
2018-08-17T08:22:12.023Z,10.87
2018-08-17T08:24:42.303Z,10.57
2018-08-17T08:27:12.626Z,10.57
2018-08-17T08:29:42.905Z,10.50
2018-08-17T08:32:13.704Z,10.43
2018-08-17T08:34:44.014Z,11.93
2018-08-17T08:37:14.313Z,11.83
2018-08-17T08:39:44.658Z,10.80
2018-08-17T08:42:15.013Z,9.57
2018-08-17T08:44:45.300Z,10.00
2018-08-17T08:47:15.687Z,9.53
2018-08-17T08:49:45.972Z,9.20
2018-08-17T08:52:16.272Z,11.07
2018-08-17T08:54:46.533Z,11.43
2018-08-17T08:57:16.839Z,11.93
2018-08-17T08:59:47.113Z,11.17
2018-08-17T09:02:17.444Z,10.33
2018-08-17T09:04:47.756Z,12.27
2018-08-17T09:07:18.037Z,11.33
2018-08-17T09:09:48.348Z,11.00
2018-08-17T09:12:18.659Z,10.37
2018-08-17T09:14:48.974Z,11.00
2018-08-17T09:17:19.327Z,11.50
2018-08-17T09:19:49.577Z,10.17
2018-08-17T09:22:19.982Z,9.80
2018-08-17T09:24:50.270Z,11.00
2018-08-17T09:27:20.737Z,9.43
2018-08-17T09:29:51.093Z,9.10
2018-08-17T09:32:21.726Z,10.83
2018-08-17T09:34:52.049Z,9.80
2018-08-17T09:37:22.470Z,11.27
2018-08-17T09:39:52.751Z,11.47
2018-08-17T09:42:23.050Z,11.43
2018-08-17T09:44:53.312Z,11.00
2018-08-17T09:47:23.616Z,9.87
2018-08-17T09:49:53.876Z,8.97
2018-08-17T09:52:24.391Z,11.07
2018-08-17T09:54:54.857Z,12.00
2018-08-17T09:57:25.199Z,11.13
2018-08-17T09:59:56.393Z,8.73
2018-08-17T10:02:32.395Z,9.10
2018-08-17T10:05:07.673Z,9.33
2018-08-17T10:07:42.763Z,10.73
2018-08-17T10:10:17.784Z,9.27
2018-08-17T10:12:49.165Z,8.87
2018-08-17T10:15:19.474Z,10.50
2018-08-17T10:17:49.821Z,8.17
2018-08-17T10:20:21.412Z,7.40
2018-08-17T10:22:51.683Z,9.77
2018-08-17T10:25:24.942Z,8.63
2018-08-17T10:27:56.514Z,8.60
2018-08-17T10:30:27.142Z,7.80
2018-08-17T10:33:01.623Z,9.07
2018-08-17T10:35:33.189Z,9.13
2018-08-17T10:38:04.828Z,9.33
2018-08-17T10:40:35.502Z,7.13
2018-08-17T10:43:07.123Z,6.30
2018-08-17T10:45:37.423Z,8.60
2018-08-17T10:48:07.771Z,6.87
2018-08-17T10:50:38.009Z,8.57
2018-08-17T10:53:08.327Z,8.30
2018-08-17T10:55:43.900Z,10.47
2018-08-17T10:58:17.177Z,7.87
2018-08-17T11:00:47.546Z,8.07
2018-08-17T11:03:17.869Z,8.13
2018-08-17T11:05:48.094Z,7.53
2018-08-17T11:08:18.372Z,7.27
2018-08-17T11:10:48.619Z,6.53
2018-08-17T11:13:19.012Z,6.20
2018-08-17T11:15:49.344Z,7.43
2018-08-17T11:18:20.183Z,6.33
2018-08-17T11:20:50.657Z,6.23
2018-08-17T11:23:20.957Z,5.90
2018-08-17T11:25:51.230Z,6.87
2018-08-17T11:28:21.545Z,9.20
2018-08-17T11:30:51.829Z,5.57
2018-08-17T11:33:30.001Z,6.43
2018-08-17T11:36:00.282Z,5.13
2018-08-17T11:38:30.561Z,6.37
2018-08-17T11:41:00.840Z,6.27
2018-08-17T11:43:31.132Z,5.37
2018-08-17T11:46:01.467Z,4.90
2018-08-17T11:48:36.541Z,5.30
2018-08-17T11:51:06.829Z,4.93
2018-08-17T11:53:37.149Z,4.93
2018-08-17T11:56:07.444Z,5.77
2018-08-17T11:58:37.692Z,5.37
2018-08-17T12:01:14.285Z,5.60
2018-08-17T12:03:44.623Z,6.67
2018-08-17T12:06:14.872Z,8.43
2018-08-17T12:08:45.180Z,5.93
2018-08-17T12:11:15.483Z,10.70
2018-08-17T12:13:45.784Z,8.23
2018-08-17T12:16:16.613Z,8.73
2018-08-17T12:18:46.904Z,9.63
2018-08-17T12:21:17.207Z,9.73
2018-08-17T12:23:47.498Z,6.40
2018-08-17T12:26:17.936Z,7.13
2018-08-17T12:28:48.270Z,7.83
2018-08-17T12:31:18.552Z,7.50
2018-08-17T12:33:49.237Z,9.70
2018-08-17T12:36:19.587Z,6.77
2018-08-17T12:38:49.903Z,9.73
2018-08-17T12:41:20.201Z,7.27
2018-08-17T12:43:50.501Z,6.57
2018-08-17T12:46:20.750Z,8.47
2018-08-17T12:48:51.043Z,6.47
2018-08-17T12:51:21.359Z,7.20
2018-08-17T12:53:51.664Z,8.30
2018-08-17T12:56:21.913Z,6.60
2018-08-17T12:58:52.215Z,6.07
2018-08-17T13:01:22.598Z,7.27
2018-08-17T13:03:53.127Z,5.43
2018-08-17T13:06:23.401Z,4.83
2018-08-17T13:08:53.687Z,7.60
2018-08-17T13:11:23.967Z,7.37
2018-08-17T13:13:58.313Z,6.93
2018-08-17T13:16:28.645Z,7.63
2018-08-17T13:18:58.940Z,4.93
2018-08-17T13:21:29.288Z,5.43
2018-08-17T13:23:59.603Z,5.90
2018-08-17T13:26:30.793Z,6.60
2018-08-17T13:29:01.224Z,6.03
2018-08-17T13:31:32.203Z,7.00
2018-08-17T13:34:02.863Z,5.77
2018-08-17T13:36:33.116Z,6.07
2018-08-17T13:39:03.601Z,5.07
2018-08-17T13:41:33.847Z,6.67
2018-08-17T13:44:04.710Z,6.00
2018-08-17T13:46:35.053Z,5.43
2018-08-17T13:49:05.722Z,5.47
2018-08-17T13:51:36.104Z,5.00
2018-08-17T13:54:06.393Z,7.87
2018-08-17T13:56:36.655Z,6.83
2018-08-17T13:59:07.084Z,8.20
2018-08-17T14:01:37.414Z,5.33
2018-08-17T14:04:07.732Z,6.57
2018-08-17T14:06:38.045Z,4.67
2018-08-17T14:09:09.364Z,3.90
2018-08-17T14:11:39.671Z,6.50
2018-08-17T14:14:09.963Z,6.00
2018-08-17T14:16:40.229Z,6.80
2018-08-17T14:19:10.512Z,4.53
2018-08-17T14:21:40.851Z,3.63
2018-08-17T14:24:11.253Z,4.13
2018-08-17T14:26:41.573Z,4.60
2018-08-17T14:29:11.865Z,4.30
2018-08-17T14:31:42.105Z,4.47
2018-08-17T14:34:13.005Z,4.73
2018-08-17T14:36:43.289Z,4.30
2018-08-17T14:39:13.639Z,4.20
2018-08-17T14:41:56.259Z,4.87
2018-08-17T14:44:27.402Z,5.50
2018-08-17T14:46:57.707Z,5.53
2018-08-17T14:49:28.344Z,4.50
2018-08-17T14:51:58.655Z,4.33
2018-08-17T14:54:29.000Z,5.90
2018-08-17T14:56:59.249Z,5.53
2018-08-17T14:59:29.580Z,8.53
2018-08-17T15:01:59.857Z,5.13
2018-08-17T15:04:30.155Z,4.80
2018-08-17T15:07:00.416Z,4.83
2018-08-17T15:09:30.736Z,4.50
2018-08-17T15:12:01.099Z,6.20
2018-08-17T15:14:31.494Z,5.17
2018-08-17T15:17:01.921Z,5.77
2018-08-17T15:19:32.328Z,11.03
2018-08-17T15:22:03.528Z,8.70
2018-08-17T15:24:33.876Z,5.03
2018-08-17T15:27:04.197Z,6.10
2018-08-17T15:29:35.572Z,5.43
2018-08-17T15:32:05.853Z,6.33
2018-08-17T15:34:36.480Z,5.17
2018-08-17T15:37:06.753Z,65.53
2018-08-17T15:39:37.076Z,52.87
2018-08-17T15:42:07.352Z,61.90
2018-08-17T15:44:37.653Z,36.53
2018-08-17T15:47:07.925Z,23.67
2018-08-17T15:49:38.248Z,27.33
2018-08-17T15:52:08.876Z,15.47
2018-08-17T15:54:39.213Z,14.20
2018-08-17T15:57:09.613Z,13.83
2018-08-17T15:59:39.897Z,11.17
2018-08-17T16:02:10.466Z,11.00
2018-08-17T16:04:40.781Z,13.03
2018-08-17T16:07:11.119Z,7.80
2018-08-17T16:09:43.999Z,8.70
2018-08-17T16:12:14.295Z,8.50
2018-08-17T16:14:44.669Z,13.20
2018-08-17T16:17:15.605Z,9.87
2018-08-17T16:19:45.893Z,10.00
2018-08-17T16:22:16.204Z,10.83
2018-08-17T16:24:46.587Z,10.07
2018-08-17T16:27:16.922Z,9.43
2018-08-17T16:29:48.145Z,7.77
2018-08-17T16:32:18.417Z,7.63
2018-08-17T16:34:49.037Z,6.53
2018-08-17T16:37:19.371Z,7.67
2018-08-17T16:39:55.553Z,7.97
2018-08-17T16:42:34.096Z,5.97
2018-08-17T16:45:04.724Z,8.03
2018-08-17T16:47:34.965Z,5.03
2018-08-17T16:50:06.071Z,6.63
2018-08-17T16:52:36.386Z,6.43
2018-08-17T16:55:07.097Z,8.87
2018-08-17T16:57:37.732Z,5.80
2018-08-17T17:00:09.614Z,8.20
2018-08-17T17:02:40.203Z,10.37
2018-08-17T17:05:10.670Z,8.87
2018-08-17T17:07:40.990Z,5.27
2018-08-17T17:10:11.820Z,7.40
2018-08-17T17:12:42.313Z,6.37
2018-08-17T17:15:17.736Z,5.10
2018-08-17T17:18:04.107Z,6.83
2018-08-17T17:20:37.680Z,5.57
2018-08-17T17:23:09.267Z,6.90
2018-08-17T17:25:40.854Z,7.53
2018-08-17T17:28:11.149Z,5.77
2018-08-17T17:30:46.643Z,7.17
2018-08-17T17:33:16.905Z,5.37
2018-08-17T17:35:47.687Z,6.17
2018-08-17T17:38:17.995Z,6.37
2018-08-17T17:40:48.317Z,7.60
2018-08-17T17:43:18.625Z,6.53
2018-08-17T17:45:49.080Z,8.37
2018-08-17T17:48:19.359Z,7.37
2018-08-17T17:50:49.698Z,5.07
2018-08-17T17:53:20.067Z,8.90
2018-08-17T17:55:51.009Z,6.90
2018-08-17T17:58:22.349Z,5.70
2018-08-17T18:00:58.590Z,7.17
2018-08-17T18:03:30.142Z,6.17
2018-08-17T18:06:06.745Z,9.27
2018-08-17T18:08:37.049Z,6.33
2018-08-17T18:11:07.445Z,6.60
2018-08-17T18:13:37.723Z,8.87
2018-08-17T18:16:08.052Z,7.30
2018-08-17T18:18:38.375Z,7.27
2018-08-17T18:21:08.713Z,6.97
2018-08-17T18:23:39.059Z,6.20
2018-08-17T18:26:22.597Z,6.60
2018-08-17T18:28:52.979Z,8.30
2018-08-17T18:31:23.332Z,6.83
2018-08-17T18:33:53.682Z,5.73
2018-08-17T18:36:24.261Z,5.77
2018-08-17T18:38:54.539Z,5.77
2018-08-17T18:41:24.849Z,6.73
2018-08-17T18:43:55.209Z,7.17
2018-08-17T18:46:25.721Z,7.87
2018-08-17T18:48:56.825Z,8.10
2018-08-17T18:51:27.124Z,10.20
2018-08-17T18:53:57.387Z,7.03
2018-08-17T18:56:27.779Z,6.40
2018-08-17T18:58:58.444Z,9.90
2018-08-17T19:01:28.775Z,7.80
2018-08-17T19:03:59.160Z,10.20
2018-08-17T19:06:29.487Z,10.67
2018-08-17T19:08:59.786Z,6.83
2018-08-17T19:11:30.052Z,7.57
2018-08-17T19:14:01.161Z,7.97
2018-08-17T19:16:31.539Z,7.27
2018-08-17T19:19:01.833Z,9.37
2018-08-17T19:21:32.232Z,6.73
2018-08-17T19:24:02.587Z,7.17
2018-08-17T19:26:32.951Z,6.57
2018-08-17T19:29:03.284Z,6.97
2018-08-17T19:31:33.745Z,7.57
2018-08-17T19:34:04.133Z,5.80
2018-08-17T19:36:34.855Z,6.43
2018-08-17T19:39:05.652Z,6.53
2018-08-17T19:41:35.961Z,6.57
2018-08-17T19:44:06.788Z,7.40
2018-08-17T19:46:37.179Z,7.00
2018-08-17T19:49:07.679Z,7.27
2018-08-17T19:51:38.018Z,6.80
2018-08-17T19:54:08.628Z,6.53
2018-08-17T19:56:38.988Z,6.77
2018-08-17T19:59:09.428Z,9.80
2018-08-17T20:01:39.855Z,8.43
2018-08-17T20:04:10.999Z,6.23
2018-08-17T20:06:41.378Z,6.77
2018-08-17T20:09:12.423Z,5.23
2018-08-17T20:11:42.817Z,7.13
2018-08-17T20:14:13.159Z,7.70
2018-08-17T20:16:43.472Z,8.07
2018-08-17T20:19:13.851Z,5.90
2018-08-17T20:21:44.838Z,6.33
2018-08-17T20:24:15.249Z,5.50
2018-08-17T20:26:45.968Z,7.33
2018-08-17T20:29:16.236Z,6.03
2018-08-17T20:31:46.614Z,6.00
2018-08-17T20:34:18.617Z,6.00
2018-08-17T20:36:49.477Z,6.13
2018-08-17T20:39:19.846Z,5.93
2018-08-17T20:41:50.233Z,7.53
2018-08-17T20:44:21.477Z,5.50
2018-08-17T20:46:55.911Z,8.83
2018-08-17T20:49:26.231Z,6.03
2018-08-17T20:52:00.265Z,5.07
2018-08-17T20:54:31.669Z,5.87
2018-08-17T20:57:02.417Z,5.63
2018-08-17T20:59:32.735Z,5.20
2018-08-17T21:02:03.161Z,6.90
2018-08-17T21:04:33.506Z,7.00
2018-08-17T21:07:04.025Z,5.47
2018-08-17T21:09:34.348Z,5.73
2018-08-17T21:12:04.705Z,6.83
2018-08-17T21:14:36.126Z,6.27
2018-08-17T21:17:06.553Z,6.00
2018-08-17T21:19:40.985Z,5.27
2018-08-17T21:22:12.335Z,5.23
2018-08-17T21:24:42.653Z,6.57
2018-08-17T21:27:13.022Z,8.43
2018-08-17T21:29:43.376Z,6.07
2018-08-17T21:32:13.756Z,5.40
2018-08-17T21:34:44.054Z,5.53
2018-08-17T21:37:14.768Z,5.43
2018-08-17T21:39:45.079Z,7.33
2018-08-17T21:42:16.094Z,5.83
2018-08-17T21:44:46.715Z,5.43
2018-08-17T21:47:17.069Z,5.50
2018-08-17T21:49:47.372Z,7.37
2018-08-17T21:52:22.679Z,5.80
2018-08-17T21:54:53.069Z,5.87
2018-08-17T21:57:23.410Z,6.03
2018-08-17T21:59:53.721Z,5.47
2018-08-17T22:02:24.100Z,7.37
2018-08-17T22:04:54.579Z,6.63
2018-08-17T22:07:25.811Z,5.17
2018-08-17T22:09:56.194Z,6.13
2018-08-17T22:12:26.629Z,6.87
2018-08-17T22:14:56.977Z,7.30
2018-08-17T22:17:41.122Z,5.67
2018-08-17T22:20:12.135Z,5.53
2018-08-17T22:22:42.488Z,4.97
2018-08-17T22:25:15.604Z,5.13
2018-08-17T22:27:46.169Z,5.33
2018-08-17T22:30:20.228Z,5.33
2018-08-17T22:32:50.706Z,5.10
2018-08-17T22:35:21.157Z,6.83
2018-08-17T22:37:51.821Z,4.83
2018-08-17T22:40:22.958Z,5.63
2018-08-17T22:42:53.303Z,6.17
2018-08-17T22:45:23.663Z,4.63
2018-08-17T22:47:54.024Z,5.20
2018-08-17T22:50:24.416Z,5.03
2018-08-17T22:52:54.793Z,5.40
2018-08-17T22:55:25.131Z,7.13
2018-08-17T22:57:55.500Z,5.03
2018-08-17T23:00:27.650Z,4.73
2018-08-17T23:02:59.354Z,4.30
2018-08-17T23:05:35.030Z,3.90
2018-08-17T23:08:05.498Z,5.03
2018-08-17T23:10:35.809Z,4.10
2018-08-17T23:13:06.231Z,3.90
2018-08-17T23:15:36.557Z,4.57
2018-08-17T23:18:07.208Z,5.10
2018-08-17T23:20:38.525Z,4.23
2018-08-17T23:23:08.950Z,4.00
2018-08-17T23:25:39.279Z,3.70
2018-08-17T23:28:09.597Z,4.00
2018-08-17T23:30:39.958Z,5.57
2018-08-17T23:33:10.439Z,4.33
2018-08-17T23:35:40.782Z,4.10
2018-08-17T23:38:11.507Z,3.50
2018-08-17T23:40:41.806Z,4.23
2018-08-17T23:43:12.299Z,3.50
2018-08-17T23:45:42.639Z,3.40
2018-08-17T23:48:13.007Z,3.50
2018-08-17T23:50:43.384Z,3.50
2018-08-17T23:53:13.839Z,3.53
2018-08-17T23:55:44.241Z,5.17
2018-08-17T23:58:14.635Z,3.37
